sensor_id;sensor_type;location;lat;lon;timestamp;P1;durP1;ratioP1;P2;durP2;ratioP2
43319;SDS011;28914;48.722;9.332;2023-05-07T00:04:41;2.30;;;2.10;;
43319;SDS011;28914;48.722;9.332;2023-05-07T00:10:01;3.00;;;2.50;;
43319;SDS011;28914;48.722;9.332;2023-05-07T00:15:21;2.90;;;1.93;;
43319;SDS011;28914;48.722;9.332;2023-05-07T00:20:40;2.20;;;1.73;;
43319;SDS011;28914;48.722;9.332;2023-05-07T00:25:59;2.37;;;2.17;;
43319;SDS011;28914;48.722;9.332;2023-05-07T00:31:18;2.40;;;1.90;;
43319;SDS011;28914;48.722;9.332;2023-05-07T00:36:37;2.77;;;2.03;;
43319;SDS011;28914;48.722;9.332;2023-05-07T00:41:57;2.53;;;1.70;;
43319;SDS011;28914;48.722;9.332;2023-05-07T00:47:16;1.90;;;1.60;;
43319;SDS011;28914;48.722;9.332;2023-05-07T00:52:36;2.10;;;1.80;;
43319;SDS011;28914;48.722;9.332;2023-05-07T00:57:56;2.20;;;2.00;;
43319;SDS011;28914;48.722;9.332;2023-05-07T01:03:15;2.17;;;1.87;;
43319;SDS011;28914;48.722;9.332;2023-05-07T01:08:34;2.33;;;2.10;;
43319;SDS011;28914;48.722;9.332;2023-05-07T01:13:54;2.63;;;2.43;;
43319;SDS011;28914;48.722;9.332;2023-05-07T01:19:13;1.67;;;1.57;;
43319;SDS011;28914;48.722;9.332;2023-05-07T01:24:36;2.40;;;1.93;;
43319;SDS011;28914;48.722;9.332;2023-05-07T01:29:56;3.30;;;2.00;;
43319;SDS011;28914;48.722;9.332;2023-05-07T01:35:22;4.17;;;2.13;;
43319;SDS011;28914;48.722;9.332;2023-05-07T01:40:45;2.40;;;2.20;;
43319;SDS011;28914;48.722;9.332;2023-05-07T01:46:05;2.37;;;2.10;;
43319;SDS011;28914;48.722;9.332;2023-05-07T01:51:25;2.33;;;2.10;;
43319;SDS011;28914;48.722;9.332;2023-05-07T01:56:44;2.33;;;2.13;;
43319;SDS011;28914;48.722;9.332;2023-05-07T02:02:06;3.50;;;2.10;;
43319;SDS011;28914;48.722;9.332;2023-05-07T02:07:25;2.30;;;2.10;;
43319;SDS011;28914;48.722;9.332;2023-05-07T02:12:45;2.97;;;2.00;;
43319;SDS011;28914;48.722;9.332;2023-05-07T02:18:05;2.10;;;1.90;;
43319;SDS011;28914;48.722;9.332;2023-05-07T02:23:26;2.53;;;2.13;;
43319;SDS011;28914;48.722;9.332;2023-05-07T02:28:45;2.93;;;2.57;;
43319;SDS011;28914;48.722;9.332;2023-05-07T02:34:04;1.80;;;1.70;;
43319;SDS011;28914;48.722;9.332;2023-05-07T02:39:23;2.40;;;2.20;;
43319;SDS011;28914;48.722;9.332;2023-05-07T02:44:43;3.70;;;3.13;;
43319;SDS011;28914;48.722;9.332;2023-05-07T02:50:02;2.77;;;2.57;;
43319;SDS011;28914;48.722;9.332;2023-05-07T02:55:22;5.70;;;5.20;;
43319;SDS011;28914;48.722;9.332;2023-05-07T03:00:41;2.80;;;2.50;;
43319;SDS011;28914;48.722;9.332;2023-05-07T03:06:00;3.77;;;3.10;;
43319;SDS011;28914;48.722;9.332;2023-05-07T03:11:20;3.23;;;2.53;;
43319;SDS011;28914;48.722;9.332;2023-05-07T03:16:39;3.83;;;2.70;;
43319;SDS011;28914;48.722;9.332;2023-05-07T03:21:58;3.47;;;2.80;;
43319;SDS011;28914;48.722;9.332;2023-05-07T03:27:18;2.27;;;2.03;;
43319;SDS011;28914;48.722;9.332;2023-05-07T03:32:37;3.13;;;2.83;;
43319;SDS011;28914;48.722;9.332;2023-05-07T03:37:56;2.73;;;2.30;;
43319;SDS011;28914;48.722;9.332;2023-05-07T03:43:15;3.10;;;2.70;;
43319;SDS011;28914;48.722;9.332;2023-05-07T03:48:34;3.03;;;2.70;;
43319;SDS011;28914;48.722;9.332;2023-05-07T03:53:53;3.13;;;2.70;;
43319;SDS011;28914;48.722;9.332;2023-05-07T03:59:13;3.50;;;2.60;;
43319;SDS011;28914;48.722;9.332;2023-05-07T04:04:32;3.33;;;2.43;;
43319;SDS011;28914;48.722;9.332;2023-05-07T04:09:51;2.47;;;2.10;;
43319;SDS011;28914;48.722;9.332;2023-05-07T04:15:11;2.10;;;1.90;;
43319;SDS011;28914;48.722;9.332;2023-05-07T04:20:30;3.20;;;2.90;;
43319;SDS011;28914;48.722;9.332;2023-05-07T04:25:49;3.07;;;2.43;;
43319;SDS011;28914;48.722;9.332;2023-05-07T04:31:09;5.63;;;2.57;;
43319;SDS011;28914;48.722;9.332;2023-05-07T04:36:28;1.70;;;1.60;;
43319;SDS011;28914;48.722;9.332;2023-05-07T04:41:47;2.57;;;2.37;;
43319;SDS011;28914;48.722;9.332;2023-05-07T04:47:07;3.20;;;2.90;;
43319;SDS011;28914;48.722;9.332;2023-05-07T04:52:26;2.63;;;2.43;;
43319;SDS011;28914;48.722;9.332;2023-05-07T04:57:45;3.50;;;2.47;;
43319;SDS011;28914;48.722;9.332;2023-05-07T05:03:08;2.13;;;1.90;;
43319;SDS011;28914;48.722;9.332;2023-05-07T05:08:29;2.63;;;2.43;;
43319;SDS011;28914;48.722;9.332;2023-05-07T05:13:48;2.70;;;2.50;;
43319;SDS011;28914;48.722;9.332;2023-05-07T05:19:07;3.57;;;3.20;;
43319;SDS011;28914;48.722;9.332;2023-05-07T05:24:27;4.67;;;2.60;;
43319;SDS011;28914;48.722;9.332;2023-05-07T05:29:46;2.90;;;2.60;;
43319;SDS011;28914;48.722;9.332;2023-05-07T05:35:05;2.80;;;2.13;;
43319;SDS011;28914;48.722;9.332;2023-05-07T05:40:24;3.83;;;3.10;;
43319;SDS011;28914;48.722;9.332;2023-05-07T05:45:43;2.67;;;2.47;;
43319;SDS011;28914;48.722;9.332;2023-05-07T05:51:03;3.50;;;2.33;;
43319;SDS011;28914;48.722;9.332;2023-05-07T05:56:22;2.60;;;2.40;;
43319;SDS011;28914;48.722;9.332;2023-05-07T06:01:41;4.50;;;2.80;;
43319;SDS011;28914;48.722;9.332;2023-05-07T06:07:00;4.60;;;3.10;;
43319;SDS011;28914;48.722;9.332;2023-05-07T06:12:20;3.50;;;2.30;;
43319;SDS011;28914;48.722;9.332;2023-05-07T06:17:40;3.07;;;2.27;;
43319;SDS011;28914;48.722;9.332;2023-05-07T06:22:59;3.90;;;3.40;;
43319;SDS011;28914;48.722;9.332;2023-05-07T06:28:18;3.30;;;2.47;;
43319;SDS011;28914;48.722;9.332;2023-05-07T06:33:37;2.43;;;2.23;;
43319;SDS011;28914;48.722;9.332;2023-05-07T06:38:56;3.07;;;2.77;;
43319;SDS011;28914;48.722;9.332;2023-05-07T06:44:15;3.10;;;2.80;;
43319;SDS011;28914;48.722;9.332;2023-05-07T06:49:34;3.43;;;2.27;;
43319;SDS011;28914;48.722;9.332;2023-05-07T06:54:54;3.03;;;2.73;;
43319;SDS011;28914;48.722;9.332;2023-05-07T07:00:13;2.03;;;1.83;;
43319;SDS011;28914;48.722;9.332;2023-05-07T07:05:33;2.43;;;2.23;;
43319;SDS011;28914;48.722;9.332;2023-05-07T07:10:52;4.73;;;2.20;;
43319;SDS011;28914;48.722;9.332;2023-05-07T07:16:11;6.03;;;2.77;;
43319;SDS011;28914;48.722;9.332;2023-05-07T07:21:30;2.43;;;2.20;;
43319;SDS011;28914;48.722;9.332;2023-05-07T07:26:50;1.93;;;1.73;;
43319;SDS011;28914;48.722;9.332;2023-05-07T07:32:09;3.03;;;1.97;;
43319;SDS011;28914;48.722;9.332;2023-05-07T07:37:28;2.63;;;2.03;;
43319;SDS011;28914;48.722;9.332;2023-05-07T07:42:48;3.10;;;2.40;;
43319;SDS011;28914;48.722;9.332;2023-05-07T07:48:07;2.30;;;2.00;;
43319;SDS011;28914;48.722;9.332;2023-05-07T07:53:26;1.80;;;1.70;;
43319;SDS011;28914;48.722;9.332;2023-05-07T07:58:45;2.67;;;2.00;;
43319;SDS011;28914;48.722;9.332;2023-05-07T08:04:04;1.60;;;1.27;;
43319;SDS011;28914;48.722;9.332;2023-05-07T08:09:24;2.50;;;1.57;;
43319;SDS011;28914;48.722;9.332;2023-05-07T08:14:43;2.20;;;1.58;;
43319;SDS011;28914;48.722;9.332;2023-05-07T08:20:02;1.80;;;1.70;;
43319;SDS011;28914;48.722;9.332;2023-05-07T08:25:22;2.30;;;1.50;;
43319;SDS011;28914;48.722;9.332;2023-05-07T08:30:41;1.88;;;1.77;;
43319;SDS011;28914;48.722;9.332;2023-05-07T08:36:00;2.30;;;1.45;;
43319;SDS011;28914;48.722;9.332;2023-05-07T08:41:20;1.63;;;1.52;;
43319;SDS011;28914;48.722;9.332;2023-05-07T08:46:39;2.30;;;1.50;;
43319;SDS011;28914;48.722;9.332;2023-05-07T08:52:02;1.35;;;1.25;;
43319;SDS011;28914;48.722;9.332;2023-05-07T08:57:21;5.43;;;1.80;;
43319;SDS011;28914;48.722;9.332;2023-05-07T09:02:42;1.88;;;1.20;;
43319;SDS011;28914;48.722;9.332;2023-05-07T09:08:02;2.22;;;1.70;;
43319;SDS011;28914;48.722;9.332;2023-05-07T09:13:21;2.40;;;1.52;;
43319;SDS011;28914;48.722;9.332;2023-05-07T09:18:44;1.73;;;1.50;;
43319;SDS011;28914;48.722;9.332;2023-05-07T09:24:03;1.67;;;1.42;;
43319;SDS011;28914;48.722;9.332;2023-05-07T09:29:23;2.10;;;1.40;;
43319;SDS011;28914;48.722;9.332;2023-05-07T09:34:42;1.77;;;1.42;;
43319;SDS011;28914;48.722;9.332;2023-05-07T09:40:01;1.88;;;1.30;;
43319;SDS011;28914;48.722;9.332;2023-05-07T09:45:25;2.70;;;1.60;;
43319;SDS011;28914;48.722;9.332;2023-05-07T09:50:48;1.90;;;1.50;;
43319;SDS011;28914;48.722;9.332;2023-05-07T09:56:09;2.08;;;1.55;;
43319;SDS011;28914;48.722;9.332;2023-05-07T10:01:30;1.45;;;1.30;;
43319;SDS011;28914;48.722;9.332;2023-05-07T10:06:50;1.35;;;1.25;;
43319;SDS011;28914;48.722;9.332;2023-05-07T10:12:09;1.85;;;1.10;;
43319;SDS011;28914;48.722;9.332;2023-05-07T10:17:29;1.40;;;1.30;;
43319;SDS011;28914;48.722;9.332;2023-05-07T10:22:48;2.53;;;1.42;;
43319;SDS011;28914;48.722;9.332;2023-05-07T10:28:10;2.85;;;1.60;;
43319;SDS011;28914;48.722;9.332;2023-05-07T10:33:31;4.53;;;1.50;;
43319;SDS011;28914;48.722;9.332;2023-05-07T10:38:51;2.22;;;1.23;;
43319;SDS011;28914;48.722;9.332;2023-05-07T10:44:10;1.95;;;1.45;;
43319;SDS011;28914;48.722;9.332;2023-05-07T10:49:30;1.88;;;1.38;;
43319;SDS011;28914;48.722;9.332;2023-05-07T10:55:19;1.30;;;1.15;;
43319;SDS011;28914;48.722;9.332;2023-05-07T11:06:14;1.92;;;1.27;;
43319;SDS011;28914;48.722;9.332;2023-05-07T11:11:49;1.80;;;1.10;;
43319;SDS011;28914;48.722;9.332;2023-05-07T11:17:10;1.30;;;1.05;;
43319;SDS011;28914;48.722;9.332;2023-05-07T11:27:49;1.92;;;1.30;;
43319;SDS011;28914;48.722;9.332;2023-05-07T11:33:09;2.13;;;1.42;;
43319;SDS011;28914;48.722;9.332;2023-05-07T11:38:29;2.00;;;1.33;;
43319;SDS011;28914;48.722;9.332;2023-05-07T11:43:55;2.37;;;1.40;;
43319;SDS011;28914;48.722;9.332;2023-05-07T11:49:16;1.50;;;1.20;;
43319;SDS011;28914;48.722;9.332;2023-05-07T11:54:36;2.23;;;1.30;;
43319;SDS011;28914;48.722;9.332;2023-05-07T11:59:56;1.80;;;1.70;;
43319;SDS011;28914;48.722;9.332;2023-05-07T12:05:16;3.97;;;1.50;;
43319;SDS011;28914;48.722;9.332;2023-05-07T12:10:39;1.93;;;1.33;;
43319;SDS011;28914;48.722;9.332;2023-05-07T12:16:00;1.60;;;1.30;;
43319;SDS011;28914;48.722;9.332;2023-05-07T12:21:21;1.43;;;1.20;;
43319;SDS011;28914;48.722;9.332;2023-05-07T12:26:41;2.20;;;1.90;;
43319;SDS011;28914;48.722;9.332;2023-05-07T12:32:02;1.93;;;1.40;;
43319;SDS011;28914;48.722;9.332;2023-05-07T12:37:24;1.67;;;1.30;;
43319;SDS011;28914;48.722;9.332;2023-05-07T12:42:44;2.70;;;1.83;;
43319;SDS011;28914;48.722;9.332;2023-05-07T12:48:04;1.83;;;1.63;;
43319;SDS011;28914;48.722;9.332;2023-05-07T12:53:24;2.97;;;2.43;;
43319;SDS011;28914;48.722;9.332;2023-05-07T12:58:44;2.70;;;2.10;;
43319;SDS011;28914;48.722;9.332;2023-05-07T13:04:04;9.07;;;4.70;;
43319;SDS011;28914;48.722;9.332;2023-05-07T13:09:24;7.53;;;3.63;;
43319;SDS011;28914;48.722;9.332;2023-05-07T13:14:43;6.77;;;5.10;;
43319;SDS011;28914;48.722;9.332;2023-05-07T13:20:02;7.50;;;4.70;;
43319;SDS011;28914;48.722;9.332;2023-05-07T13:25:22;7.17;;;3.60;;
43319;SDS011;28914;48.722;9.332;2023-05-07T13:30:41;4.20;;;2.40;;
43319;SDS011;28914;48.722;9.332;2023-05-07T13:36:00;4.10;;;2.60;;
43319;SDS011;28914;48.722;9.332;2023-05-07T13:41:20;3.40;;;2.27;;
43319;SDS011;28914;48.722;9.332;2023-05-07T13:46:39;2.30;;;1.90;;
43319;SDS011;28914;48.722;9.332;2023-05-07T13:51:58;3.70;;;2.40;;
43319;SDS011;28914;48.722;9.332;2023-05-07T13:57:18;2.17;;;1.43;;
43319;SDS011;28914;48.722;9.332;2023-05-07T14:02:37;1.77;;;1.30;;
43319;SDS011;28914;48.722;9.332;2023-05-07T14:07:57;2.00;;;1.33;;
43319;SDS011;28914;48.722;9.332;2023-05-07T14:13:16;2.63;;;1.30;;
43319;SDS011;28914;48.722;9.332;2023-05-07T14:18:35;3.63;;;1.30;;
43319;SDS011;28914;48.722;9.332;2023-05-07T14:23:55;2.20;;;1.67;;
43319;SDS011;28914;48.722;9.332;2023-05-07T14:29:15;3.30;;;2.03;;
43319;SDS011;28914;48.722;9.332;2023-05-07T14:34:37;3.67;;;2.17;;
43319;SDS011;28914;48.722;9.332;2023-05-07T14:39:56;1.30;;;1.10;;
43319;SDS011;28914;48.722;9.332;2023-05-07T14:45:15;2.57;;;1.53;;
43319;SDS011;28914;48.722;9.332;2023-05-07T14:50:34;1.83;;;1.30;;
43319;SDS011;28914;48.722;9.332;2023-05-07T14:55:54;3.93;;;1.53;;
43319;SDS011;28914;48.722;9.332;2023-05-07T15:01:13;2.20;;;2.00;;
43319;SDS011;28914;48.722;9.332;2023-05-07T15:06:32;2.40;;;2.20;;
43319;SDS011;28914;48.722;9.332;2023-05-07T15:11:52;3.57;;;1.90;;
43319;SDS011;28914;48.722;9.332;2023-05-07T15:17:11;4.07;;;3.57;;
43319;SDS011;28914;48.722;9.332;2023-05-07T15:22:30;6.57;;;3.63;;
43319;SDS011;28914;48.722;9.332;2023-05-07T15:27:49;2.83;;;2.37;;
43319;SDS011;28914;48.722;9.332;2023-05-07T15:33:08;2.87;;;1.90;;
43319;SDS011;28914;48.722;9.332;2023-05-07T15:38:28;4.43;;;2.30;;
43319;SDS011;28914;48.722;9.332;2023-05-07T15:43:48;3.03;;;2.73;;
43319;SDS011;28914;48.722;9.332;2023-05-07T15:49:08;3.23;;;1.70;;
43319;SDS011;28914;48.722;9.332;2023-05-07T15:54:28;3.77;;;1.73;;
43319;SDS011;28914;48.722;9.332;2023-05-07T15:59:47;2.13;;;1.73;;
43319;SDS011;28914;48.722;9.332;2023-05-07T16:05:06;2.97;;;2.20;;
43319;SDS011;28914;48.722;9.332;2023-05-07T16:10:27;3.23;;;1.90;;
43319;SDS011;28914;48.722;9.332;2023-05-07T16:15:47;2.30;;;1.70;;
43319;SDS011;28914;48.722;9.332;2023-05-07T16:21:07;2.70;;;1.90;;
43319;SDS011;28914;48.722;9.332;2023-05-07T16:26:26;4.63;;;2.10;;
43319;SDS011;28914;48.722;9.332;2023-05-07T16:31:45;2.73;;;1.67;;
43319;SDS011;28914;48.722;9.332;2023-05-07T16:37:04;1.93;;;1.67;;
43319;SDS011;28914;48.722;9.332;2023-05-07T16:42:25;3.40;;;1.73;;
43319;SDS011;28914;48.722;9.332;2023-05-07T16:47:44;2.47;;;1.67;;
43319;SDS011;28914;48.722;9.332;2023-05-07T16:53:05;2.20;;;1.83;;
43319;SDS011;28914;48.722;9.332;2023-05-07T16:58:27;2.63;;;1.60;;
43319;SDS011;28914;48.722;9.332;2023-05-07T17:03:47;1.90;;;1.47;;
43319;SDS011;28914;48.722;9.332;2023-05-07T17:09:06;2.30;;;1.53;;
43319;SDS011;28914;48.722;9.332;2023-05-07T17:14:25;1.87;;;1.60;;
43319;SDS011;28914;48.722;9.332;2023-05-07T17:19:44;1.67;;;1.33;;
43319;SDS011;28914;48.722;9.332;2023-05-07T17:25:04;1.60;;;1.33;;
43319;SDS011;28914;48.722;9.332;2023-05-07T17:30:23;1.93;;;1.73;;
43319;SDS011;28914;48.722;9.332;2023-05-07T17:35:42;2.87;;;2.20;;
43319;SDS011;28914;48.722;9.332;2023-05-07T17:41:02;1.70;;;1.60;;
43319;SDS011;28914;48.722;9.332;2023-05-07T17:46:21;4.47;;;2.17;;
43319;SDS011;28914;48.722;9.332;2023-05-07T17:51:40;2.00;;;1.40;;
43319;SDS011;28914;48.722;9.332;2023-05-07T17:56:59;2.90;;;2.13;;
43319;SDS011;28914;48.722;9.332;2023-05-07T18:02:18;2.43;;;1.90;;
43319;SDS011;28914;48.722;9.332;2023-05-07T18:07:37;3.17;;;1.80;;
43319;SDS011;28914;48.722;9.332;2023-05-07T18:12:57;2.03;;;1.70;;
43319;SDS011;28914;48.722;9.332;2023-05-07T18:18:16;2.07;;;1.87;;
43319;SDS011;28914;48.722;9.332;2023-05-07T18:23:36;3.80;;;2.00;;
43319;SDS011;28914;48.722;9.332;2023-05-07T18:28:56;3.30;;;1.90;;
43319;SDS011;28914;48.722;9.332;2023-05-07T18:34:15;1.83;;;1.53;;
43319;SDS011;28914;48.722;9.332;2023-05-07T18:39:34;4.17;;;2.03;;
43319;SDS011;28914;48.722;9.332;2023-05-07T18:44:54;3.97;;;2.67;;
43319;SDS011;28914;48.722;9.332;2023-05-07T18:50:13;2.60;;;2.00;;
43319;SDS011;28914;48.722;9.332;2023-05-07T18:55:34;2.37;;;1.70;;
43319;SDS011;28914;48.722;9.332;2023-05-07T19:00:53;2.27;;;2.07;;
43319;SDS011;28914;48.722;9.332;2023-05-07T19:06:12;2.57;;;2.07;;
43319;SDS011;28914;48.722;9.332;2023-05-07T19:11:31;2.90;;;1.60;;
43319;SDS011;28914;48.722;9.332;2023-05-07T19:16:51;2.50;;;2.30;;
43319;SDS011;28914;48.722;9.332;2023-05-07T19:22:10;4.50;;;2.20;;
43319;SDS011;28914;48.722;9.332;2023-05-07T19:27:29;2.93;;;2.20;;
43319;SDS011;28914;48.722;9.332;2023-05-07T19:32:48;2.70;;;2.43;;
43319;SDS011;28914;48.722;9.332;2023-05-07T19:38:08;2.70;;;2.27;;
43319;SDS011;28914;48.722;9.332;2023-05-07T19:43:27;4.30;;;2.33;;
43319;SDS011;28914;48.722;9.332;2023-05-07T19:48:53;2.30;;;2.10;;
43319;SDS011;28914;48.722;9.332;2023-05-07T19:54:12;2.50;;;2.30;;
43319;SDS011;28914;48.722;9.332;2023-05-07T19:59:32;2.67;;;2.47;;
43319;SDS011;28914;48.722;9.332;2023-05-07T20:04:51;2.77;;;2.57;;
43319;SDS011;28914;48.722;9.332;2023-05-07T20:10:10;3.33;;;2.50;;
43319;SDS011;28914;48.722;9.332;2023-05-07T20:15:29;2.93;;;2.57;;
43319;SDS011;28914;48.722;9.332;2023-05-07T20:20:48;2.40;;;2.20;;
43319;SDS011;28914;48.722;9.332;2023-05-07T20:26:08;3.30;;;2.70;;
43319;SDS011;28914;48.722;9.332;2023-05-07T20:31:27;3.07;;;2.53;;
43319;SDS011;28914;48.722;9.332;2023-05-07T20:36:49;4.60;;;2.80;;
43319;SDS011;28914;48.722;9.332;2023-05-07T20:42:09;2.50;;;2.30;;
43319;SDS011;28914;48.722;9.332;2023-05-07T20:47:30;2.53;;;2.33;;
43319;SDS011;28914;48.722;9.332;2023-05-07T20:52:51;3.07;;;2.43;;
43319;SDS011;28914;48.722;9.332;2023-05-07T20:58:10;3.00;;;2.40;;
43319;SDS011;28914;48.722;9.332;2023-05-07T21:03:30;2.47;;;2.27;;
43319;SDS011;28914;48.722;9.332;2023-05-07T21:08:49;3.50;;;3.20;;
43319;SDS011;28914;48.722;9.332;2023-05-07T21:14:08;3.07;;;2.70;;
43319;SDS011;28914;48.722;9.332;2023-05-07T21:19:28;3.20;;;2.90;;
43319;SDS011;28914;48.722;9.332;2023-05-07T21:24:47;4.77;;;3.00;;
43319;SDS011;28914;48.722;9.332;2023-05-07T21:30:06;2.93;;;2.73;;
43319;SDS011;28914;48.722;9.332;2023-05-07T21:35:25;3.57;;;3.27;;
43319;SDS011;28914;48.722;9.332;2023-05-07T21:40:45;3.00;;;2.60;;
43319;SDS011;28914;48.722;9.332;2023-05-07T21:46:07;3.30;;;2.90;;
43319;SDS011;28914;48.722;9.332;2023-05-07T21:51:27;3.07;;;2.77;;
43319;SDS011;28914;48.722;9.332;2023-05-07T21:56:47;3.37;;;3.07;;
43319;SDS011;28914;48.722;9.332;2023-05-07T22:02:06;3.83;;;3.53;;
43319;SDS011;28914;48.722;9.332;2023-05-07T22:07:25;3.87;;;3.27;;
43319;SDS011;28914;48.722;9.332;2023-05-07T22:12:45;4.43;;;3.23;;
43319;SDS011;28914;48.722;9.332;2023-05-07T22:18:04;3.57;;;3.23;;
43319;SDS011;28914;48.722;9.332;2023-05-07T22:23:23;2.97;;;2.67;;
43319;SDS011;28914;48.722;9.332;2023-05-07T22:28:42;3.20;;;2.90;;
43319;SDS011;28914;48.722;9.332;2023-05-07T22:34:02;3.57;;;2.77;;
43319;SDS011;28914;48.722;9.332;2023-05-07T22:39:21;4.20;;;3.23;;
43319;SDS011;28914;48.722;9.332;2023-05-07T22:44:40;3.50;;;3.20;;
43319;SDS011;28914;48.722;9.332;2023-05-07T22:49:59;4.10;;;3.47;;
43319;SDS011;28914;48.722;9.332;2023-05-07T22:55:19;3.17;;;2.97;;
43319;SDS011;28914;48.722;9.332;2023-05-07T23:00:38;4.53;;;3.77;;
43319;SDS011;28914;48.722;9.332;2023-05-07T23:05:58;3.87;;;3.20;;
43319;SDS011;28914;48.722;9.332;2023-05-07T23:11:17;3.40;;;3.10;;
43319;SDS011;28914;48.722;9.332;2023-05-07T23:16:36;2.83;;;2.53;;
43319;SDS011;28914;48.722;9.332;2023-05-07T23:21:55;3.30;;;3.03;;
43319;SDS011;28914;48.722;9.332;2023-05-07T23:27:14;4.77;;;3.13;;
43319;SDS011;28914;48.722;9.332;2023-05-07T23:32:33;3.33;;;2.97;;
43319;SDS011;28914;48.722;9.332;2023-05-07T23:37:52;3.37;;;3.07;;
43319;SDS011;28914;48.722;9.332;2023-05-07T23:43:12;3.40;;;3.10;;
43319;SDS011;28914;48.722;9.332;2023-05-07T23:48:31;4.83;;;3.90;;
43319;SDS011;28914;48.722;9.332;2023-05-07T23:53:50;3.70;;;3.40;;
43319;SDS011;28914;48.722;9.332;2023-05-07T23:59:10;4.53;;;4.13;;
